Time;durP1;ratioP1;P1;durP2;ratioP2;P2;SDS_P1;SDS_P2;PMS_P1;PMS_P2;Temp;Humidity;BMP_temperature;BMP_pressure;BME280_temperature;BME280_humidity;BME280_pressure;Samples;Min_cycle;Max_cycle;Signal;HPM_P1;HPM_P2
2021/03/17 00:01:21;;;;;;;13.80;10.57;;;;;;;5.07;73.66;99366.97;5110279;28;42103;-74
2021/03/17 00:04:06;;;;;;;14.60;10.87;;;;;;;5.08;73.58;99355.56;5111185;27;40748;-74
2021/03/17 00:06:52;;;;;;;16.17;11.10;;;;;;;5.07;73.65;99359.09;5111494;27;42219;-76
2021/03/17 00:09:38;;;;;;;15.60;12.33;;;;;;;5.07;73.25;99359.09;5110643;27;42594;-76
2021/03/17 00:12:25;;;;;;;13.93;10.93;;;;;;;5.06;73.25;99352.16;5111041;27;42884;-76
2021/03/17 00:15:13;;;;;;;14.17;10.70;;;;;;;5.00;73.23;99357.59;5111293;27;39957;-76
2021/03/17 00:17:58;;;;;;;10.60;9.50;;;;;;;5.08;73.05;99363.44;5109367;28;41121;-75
2021/03/17 00:20:44;;;;;;;13.30;9.90;;;;;;;5.07;72.81;99369.59;5111078;27;43589;-75
2021/03/17 00:23:30;;;;;;;12.80;10.77;;;;;;;5.05;72.65;99366.19;5110043;28;41790;-76
2021/03/17 00:26:15;;;;;;;11.73;9.37;;;;;;;5.03;72.79;99361.00;5111224;27;40099;-76
2021/03/17 00:29:02;;;;;;;14.00;10.87;;;;;;;5.00;72.55;99354.97;5110487;27;41725;-76
2021/03/17 00:31:47;;;;;;;12.23;9.47;;;;;;;4.97;72.75;99360.31;5109214;28;43084;-74
2021/03/17 00:34:32;;;;;;;11.40;9.43;;;;;;;4.95;72.68;99359.50;5110496;27;41929;-75
2021/03/17 00:37:18;;;;;;;18.00;12.33;;;;;;;4.93;72.33;99354.31;5109949;28;39950;-76
2021/03/17 00:40:05;;;;;;;14.23;10.70;;;;;;;4.95;72.38;99354.25;5110701;27;42450;-75
2021/03/17 00:42:51;;;;;;;14.97;10.90;;;;;;;4.95;72.54;99343.75;5109643;28;42336;-75
2021/03/17 00:45:37;;;;;;;12.97;9.63;;;;;;;4.83;72.68;99328.38;5110616;27;42337;-76
2021/03/17 00:48:13;;;;;;;12.27;9.77;;;;;;;4.93;72.70;99342.97;5110641;27;40078;-75
2021/03/17 00:50:47;;;;;;;13.73;9.97;;;;;;;4.96;72.37;99345.47;5109755;28;40618;-75
2021/03/17 00:53:14;;;;;;;12.77;10.17;;;;;;;4.94;72.60;99342.91;5108727;28;42708;-74
2021/03/17 00:55:41;;;;;;;12.77;10.20;;;;;;;4.92;72.82;99341.25;5110269;27;42333;-77
2021/03/17 00:58:21;;;;;;;13.17;10.27;;;;;;;4.89;72.71;99341.34;5108994;28;40731;-75
2021/03/17 01:00:50;;;;;;;16.40;11.10;;;;;;;4.84;72.77;99344.09;5110495;27;41450;-75
2021/03/17 01:03:17;;;;;;;13.90;10.63;;;;;;;4.81;72.56;99336.34;5114049;27;43166;-75
2021/03/17 01:05:44;;;;;;;13.60;11.03;;;;;;;4.78;73.09;99336.44;5112742;28;42648;-76
2021/03/17 01:08:12;;;;;;;15.80;12.23;;;;;;;4.78;72.83;99335.56;5095886;28;39276;-74
2021/03/17 01:10:43;;;;;;;13.50;10.33;;;;;;;4.76;72.70;99340.00;5112063;28;42402;-75
2021/03/17 01:13:10;;;;;;;15.27;11.60;;;;;;;4.76;73.10;99332.13;5113593;27;43433;-76
2021/03/17 01:15:38;;;;;;;13.47;11.10;;;;;;;4.76;73.00;99332.13;5113123;28;42318;-74
2021/03/17 01:18:07;;;;;;;12.87;10.63;;;;;;;4.77;72.94;99329.47;5112811;28;39092;-76
2021/03/17 01:20:35;;;;;;;16.10;11.57;;;;;;;4.81;72.70;99328.47;5113847;27;41538;-75
2021/03/17 01:23:05;;;;;;;15.47;11.50;;;;;;;4.84;72.87;99335.34;5112520;28;41764;-76
2021/03/17 01:25:34;;;;;;;15.60;11.77;;;;;;;4.86;73.00;99338.78;5111974;28;42013;-76
2021/03/17 01:28:03;;;;;;;19.50;12.37;;;;;;;4.88;72.67;99337.84;5112326;28;40353;-74
2021/03/17 01:30:34;;;;;;;13.07;9.80;;;;;;;4.91;72.90;99326.41;5112698;28;40758;-76
2021/03/17 01:33:01;;;;;;;12.60;10.00;;;;;;;4.94;72.55;99334.19;5112347;28;43059;-75
2021/03/17 01:35:30;;;;;;;11.20;9.90;;;;;;;4.86;72.57;99318.66;5113479;27;42072;-74
2021/03/17 01:37:57;;;;;;;12.27;10.40;;;;;;;4.98;72.41;99327.91;5112333;28;39905;-76
2021/03/17 01:40:26;;;;;;;11.47;9.07;;;;;;;4.98;72.45;99330.53;5113225;27;42353;-76
2021/03/17 01:42:54;;;;;;;15.80;10.27;;;;;;;4.97;72.43;99331.44;5111746;28;43433;-74
2021/03/17 01:45:23;;;;;;;10.40;9.27;;;;;;;4.95;72.34;99328.00;5113321;27;42334;-76
2021/03/17 01:47:51;;;;;;;11.70;10.13;;;;;;;4.91;72.13;99329.03;5112274;28;39956;-75
2021/03/17 01:50:22;;;;;;;12.50;10.37;;;;;;;4.86;72.33;99323.06;5113091;27;41783;-75
2021/03/17 01:52:50;;;;;;;11.47;9.63;;;;;;;4.76;72.38;99326.88;5111823;28;42377;-76
2021/03/17 01:55:18;;;;;;;11.20;9.37;;;;;;;4.66;72.52;99327.19;5113503;27;43017;-74
2021/03/17 01:57:47;;;;;;;12.87;9.00;;;;;;;4.56;72.50;99324.88;5113636;27;40733;-75
2021/03/17 02:00:16;;;;;;;13.00;10.87;;;;;;;4.32;72.82;99306.38;5112410;28;41316;-74
2021/03/17 02:02:50;;;;;;;12.83;10.90;;;;;;;4.24;72.97;99302.25;5112144;28;41717;-75
2021/03/17 02:05:23;;;;;;;12.03;10.73;;;;;;;4.28;73.03;99330.09;5095310;28;41605;-75
2021/03/17 02:07:54;;;;;;;13.23;10.70;;;;;;;4.25;73.20;99332.81;5112033;28;40708;-75
2021/03/17 02:10:22;;;;;;;14.07;11.40;;;;;;;4.27;73.51;99323.13;5094945;28;41977;-76
2021/03/17 02:13:02;;;;;;;14.23;11.30;;;;;;;4.23;73.35;99314.50;5110832;27;42848;-76
2021/03/17 02:15:52;;;;;;;12.33;10.40;;;;;;;4.31;73.58;99320.38;5111423;28;42823;-76
2021/03/17 02:18:27;;;;;;;14.57;11.90;;;;;;;4.24;73.68;99304.88;5113176;27;39818;-75
2021/03/17 02:21:14;;;;;;;13.53;10.87;;;;;;;4.31;73.65;99320.38;5113044;27;42693;-74
2021/03/17 02:23:53;;;;;;;12.57;10.70;;;;;;;4.30;73.39;99307.31;5112860;27;42688;-76
2021/03/17 02:26:49;;;;;;;14.57;11.63;;;;;;;4.28;74.09;99314.38;5095100;28;42492;-75
2021/03/17 02:29:51;;;;;;;14.43;10.40;;;;;;;4.18;73.67;99315.53;5108571;28;39296;-74
2021/03/17 02:32:36;;;;;;;15.27;11.83;;;;;;;4.18;73.76;99318.16;5074369;28;41607;-74
2021/03/17 02:35:08;;;;;;;17.40;12.37;;;;;;;4.22;73.64;99330.25;5090863;28;43552;-76
2021/03/17 02:37:41;;;;;;;14.07;10.40;;;;;;;4.14;73.44;99306.03;5092285;28;42647;-76
2021/03/17 02:40:14;;;;;;;15.67;11.03;;;;;;;4.26;73.40;99326.66;5091050;28;41581;-75
2021/03/17 02:42:52;;;;;;;11.77;10.53;;;;;;;4.29;73.39;99318.72;5092786;28;41712;-76
2021/03/17 02:45:25;;;;;;;14.57;10.87;;;;;;;4.26;73.22;99314.41;5090293;28;43519;-73
2021/03/17 02:47:59;;;;;;;13.40;11.03;;;;;;;4.30;73.48;99312.56;5091735;28;43002;-74
2021/03/17 02:50:27;;;;;;;13.90;10.40;;;;;;;4.32;73.63;99318.63;5092235;28;40013;-76
2021/03/17 02:52:56;;;;;;;16.10;12.80;;;;;;;4.26;73.79;99309.16;5090986;28;41599;-77
2021/03/17 02:55:29;;;;;;;18.90;14.43;;;;;;;4.31;73.80;99317.75;5092428;28;42689;-75
2021/03/17 02:57:58;;;;;;;18.20;13.50;;;;;;;4.31;74.00;99316.91;5092165;28;42290;-73
2021/03/17 03:00:27;;;;;;;13.90;10.97;;;;;;;4.27;74.51;99318.75;5092271;28;40046;-73
2021/03/17 03:02:56;;;;;;;15.57;12.57;;;;;;;4.13;74.29;99306.94;5090337;28;41109;-74
2021/03/17 03:05:25;;;;;;;15.07;11.30;;;;;;;4.12;74.31;99318.34;5091786;28;42472;-73
2021/03/17 03:07:54;;;;;;;12.60;10.50;;;;;;;4.01;74.45;99323.03;5091763;28;41668;-72
2021/03/17 03:10:24;;;;;;;14.23;9.77;;;;;;;3.88;74.59;99323.38;5090315;28;40246;-73
2021/03/17 03:12:51;;;;;;;13.07;10.83;;;;;;;3.77;74.63;99328.06;5090379;28;42140;-75
2021/03/17 03:15:20;;;;;;;12.27;10.93;;;;;;;3.62;74.56;99328.47;5090251;28;42636;-72
2021/03/17 03:17:48;;;;;;;16.33;11.97;;;;;;;3.53;74.81;99333.97;5091696;28;42908;-73
2021/03/17 03:20:18;;;;;;;16.03;12.33;;;;;;;3.42;74.87;99341.22;5091755;28;39841;-72
2021/03/17 03:22:47;;;;;;;12.30;9.63;;;;;;;3.33;74.90;99344.97;5089170;28;41670;-74
2021/03/17 03:25:15;;;;;;;15.20;10.80;;;;;;;3.26;75.00;99335.53;5090228;28;43294;-73
2021/03/17 03:27:44;;;;;;;18.17;12.73;;;;;;;3.21;75.48;99337.41;5100658;28;42074;-75
2021/03/17 03:30:16;;;;;;;16.93;11.67;;;;;;;3.16;75.56;99340.13;5111852;27;40860;-74
2021/03/17 03:32:44;;;;;;;12.77;10.57;;;;;;;3.11;75.56;99336.75;5111918;27;42178;-75
2021/03/17 03:35:14;;;;;;;15.17;12.20;;;;;;;3.08;76.37;99342.09;5110202;28;43323;-74
2021/03/17 03:37:41;;;;;;;15.63;11.90;;;;;;;3.05;77.17;99342.16;5111523;27;42090;-74
2021/03/17 03:40:11;;;;;;;14.63;11.27;;;;;;;3.03;77.51;99341.34;5111183;27;39929;-74
2021/03/17 03:42:40;;;;;;;14.63;11.60;;;;;;;3.00;77.15;99344.03;5117178;27;41208;-73
2021/03/17 03:45:10;;;;;;;16.23;12.30;;;;;;;2.91;78.21;99341.63;5116955;27;43105;-74
2021/03/17 03:47:38;;;;;;;16.07;12.30;;;;;;;2.94;77.74;99359.03;5118065;27;42496;-72
2021/03/17 03:50:07;;;;;;;16.90;11.83;;;;;;;2.89;77.88;99351.25;5117058;27;39806;-73
2021/03/17 03:52:40;;;;;;;13.90;11.00;;;;;;;2.82;77.29;99347.09;5115707;28;42735;-73
2021/03/17 03:55:13;;;;;;;15.80;11.33;;;;;;;2.75;77.25;99350.72;5112151;28;41816;-74
2021/03/17 03:57:47;;;;;;;14.90;10.63;;;;;;;2.73;77.40;99360.34;5111796;27;41958;-73
2021/03/17 04:00:19;;;;;;;17.17;12.43;;;;;;;2.59;77.08;99346.75;5093363;28;41111;-73
2021/03/17 04:02:49;;;;;;;13.47;11.30;;;;;;;2.60;76.93;99364.16;5111349;27;42374;-74
2021/03/17 04:05:18;;;;;;;15.20;11.03;;;;;;;2.52;76.78;99359.09;5110676;27;43600;-75
2021/03/17 04:07:49;;;;;;;15.17;11.60;;;;;;;2.44;76.82;99359.28;5109737;28;42164;-76
2021/03/17 04:10:17;;;;;;;14.27;10.63;;;;;;;2.37;76.79;99354.19;5111594;27;40482;-74
2021/03/17 04:12:46;;;;;;;18.40;11.07;;;;;;;2.30;76.83;99355.22;5111297;27;42317;-76
2021/03/17 04:15:16;;;;;;;15.33;11.33;;;;;;;2.27;76.53;99365.72;5093065;28;42082;-74
2021/03/17 04:17:49;;;;;;;14.40;10.43;;;;;;;2.20;76.59;99359.78;5109381;28;43920;-73
2021/03/17 04:20:19;;;;;;;11.73;9.93;;;;;;;2.20;77.27;99362.41;5111303;27;40925;-73
2021/03/17 04:22:48;;;;;;;13.87;10.90;;;;;;;2.17;77.08;99365.06;5111436;27;41638;-73
2021/03/17 04:25:19;;;;;;;14.33;10.60;;;;;;;2.14;76.93;99365.13;5109567;28;42834;-75
2021/03/17 04:27:50;;;;;;;12.37;10.73;;;;;;;2.12;77.14;99359.06;5089630;28;42191;-74
2021/03/17 04:30:19;;;;;;;14.77;11.97;;;;;;;2.07;77.14;99366.16;5090778;28;40381;-74
2021/03/17 04:32:48;;;;;;;14.87;11.30;;;;;;;2.05;77.30;99367.94;5089474;28;40706;-75
2021/03/17 04:35:17;;;;;;;14.67;10.70;;;;;;;1.94;77.16;99351.63;5089725;28;42712;-74
2021/03/17 04:37:48;;;;;;;13.67;10.83;;;;;;;1.98;76.99;99367.19;5072444;28;41531;-74
2021/03/17 04:40:16;;;;;;;13.57;10.10;;;;;;;1.94;77.28;99368.16;5094407;28;39108;-75
2021/03/17 04:42:45;;;;;;;14.57;10.67;;;;;;;1.87;77.58;99366.53;5109316;28;41732;-75
2021/03/17 04:45:15;;;;;;;13.33;9.67;;;;;;;1.85;77.05;99373.56;5108927;28;43417;-73
2021/03/17 04:47:44;;;;;;;17.50;12.07;;;;;;;1.83;76.92;99369.25;5110937;27;42596;-75
2021/03/17 04:50:15;;;;;;;12.73;10.83;;;;;;;1.79;77.16;99379.75;5092606;28;39326;-73
2021/03/17 04:52:44;;;;;;;13.67;10.57;;;;;;;1.75;77.25;99383.28;5110001;28;40703;-75
2021/03/17 04:55:13;;;;;;;16.37;11.10;;;;;;;1.69;77.21;99372.13;5109422;28;43269;-73
2021/03/17 04:57:44;;;;;;;14.30;10.97;;;;;;;1.67;77.06;99385.19;5111035;27;42724;-74
2021/03/17 05:00:16;;;;;;;12.63;10.13;;;;;;;1.65;76.99;99386.09;5109270;28;40711;-75
2021/03/17 05:02:48;;;;;;;12.83;9.13;;;;;;;1.57;76.79;99377.56;5109603;28;40898;-74
2021/03/17 05:05:28;;;;;;;14.13;10.03;;;;;;;1.58;77.28;99385.38;5109470;28;43553;-75
2021/03/17 05:07:55;;;;;;;15.77;10.17;;;;;;;1.58;77.20;99389.72;5109936;27;42267;-74
2021/03/17 05:10:24;;;;;;;14.17;11.03;;;;;;;1.57;77.27;99388.88;5110219;27;40929;-75
2021/03/17 05:12:53;;;;;;;18.13;12.13;;;;;;;1.52;77.84;99385.47;5110142;27;41798;-73
2021/03/17 05:15:22;;;;;;;16.07;11.03;;;;;;;1.60;77.96;99390.56;5108715;28;43246;-75
2021/03/17 05:17:50;;;;;;;14.50;10.83;;;;;;;1.52;78.26;99382.84;5109555;27;42968;-73
2021/03/17 05:20:20;;;;;;;14.70;11.13;;;;;;;1.65;78.41;99392.19;5110433;27;40588;-74
2021/03/17 05:22:49;;;;;;;18.00;12.20;;;;;;;1.68;78.57;99389.53;5108800;28;41904;-75
2021/03/17 05:25:19;;;;;;;16.80;12.73;;;;;;;1.72;78.82;99393.81;5087415;28;41661;-75
2021/03/17 05:27:47;;;;;;;16.70;11.17;;;;;;;1.72;79.22;99388.59;5102600;27;41982;-75
2021/03/17 05:30:15;;;;;;;17.23;10.93;;;;;;;1.80;79.20;99394.53;5109070;28;40329;-75
2021/03/17 05:32:47;;;;;;;15.30;11.00;;;;;;;1.80;79.53;99373.63;5108791;28;42485;-76
2021/03/17 05:35:15;;;;;;;17.50;10.83;;;;;;;2.02;79.51;99396.72;5110408;27;44061;-75
2021/03/17 05:37:43;;;;;;;18.33;10.90;;;;;;;2.13;79.38;99389.53;5108916;28;42296;-73
2021/03/17 05:40:12;;;;;;;17.10;10.00;;;;;;;2.25;79.10;99388.41;5111856;27;39982;-74
2021/03/17 05:42:40;;;;;;;16.30;10.60;;;;;;;2.32;78.91;99390.03;5108663;28;41948;-74
2021/03/17 05:45:10;;;;;;;16.67;11.20;;;;;;;2.28;79.03;99378.78;5108355;28;42524;-74
2021/03/17 05:47:42;;;;;;;14.80;10.07;;;;;;;2.35;78.88;99390.81;5109015;27;42738;-75
2021/03/17 05:50:14;;;;;;;12.03;8.80;;;;;;;2.33;78.60;99390.00;5112470;28;39499;-75
2021/03/17 05:52:42;;;;;;;12.13;7.90;;;;;;;2.30;78.20;99395.28;5095782;28;40637;-74
2021/03/17 05:55:11;;;;;;;12.33;8.60;;;;;;;2.26;78.38;99396.22;5113002;27;42473;-74
2021/03/17 05:57:39;;;;;;;12.43;8.40;;;;;;;2.21;77.97;99397.25;5094903;28;41114;-75
2021/03/17 06:00:09;;;;;;;9.77;7.30;;;;;;;2.18;77.58;99403.38;5111994;28;40900;-75
2021/03/17 06:02:37;;;;;;;10.97;7.93;;;;;;;2.14;77.70;99402.56;5113411;27;41999;-74
2021/03/17 06:05:06;;;;;;;10.10;8.00;;;;;;;2.11;77.30;99407.84;5092108;28;42600;-73
2021/03/17 06:07:41;;;;;;;15.13;9.60;;;;;;;2.09;77.33;99404.44;5109904;28;42603;-75
2021/03/17 06:10:09;;;;;;;15.13;9.67;;;;;;;2.07;77.22;99395.75;5111824;28;39200;-74
2021/03/17 06:12:37;;;;;;;16.53;9.03;;;;;;;2.08;77.50;99407.06;5112703;27;42399;-76
2021/03/17 06:15:07;;;;;;;19.10;12.93;;;;;;;2.10;77.45;99390.44;5112940;27;43143;-74
2021/03/17 06:17:35;;;;;;;13.43;10.23;;;;;;;2.17;77.42;99396.44;5112011;28;41446;-75
2021/03/17 06:20:06;;;;;;;11.90;8.40;;;;;;;2.32;77.12;99401.34;5111173;28;39537;-74
2021/03/17 06:22:36;;;;;;;13.57;8.23;;;;;;;2.37;76.86;99373.34;5111556;28;40949;-74
2021/03/17 06:25:04;;;;;;;9.97;6.93;;;;;;;2.80;76.55;99409.03;5094689;28;42779;-75
2021/03/17 06:27:34;;;;;;;8.73;6.33;;;;;;;3.15;75.84;99413.44;5112930;27;42195;-76
2021/03/17 06:30:04;;;;;;;9.63;6.27;;;;;;;3.31;75.60;99406.09;5111241;28;39690;-75
2021/03/17 06:32:32;;;;;;;10.57;7.43;;;;;;;3.57;75.14;99406.31;5112813;27;41869;-75
2021/03/17 06:35:00;;;;;;;11.80;7.53;;;;;;;3.79;74.88;99410.09;5111190;28;42610;-75
2021/03/17 06:37:38;;;;;;;10.27;6.77;;;;;;;4.05;74.58;99416.41;5103471;27;42148;-76
2021/03/17 06:40:25;;;;;;;7.93;6.30;;;;;;;4.18;74.29;99423.03;5109982;28;39864;-76
2021/03/17 06:42:54;;;;;;;8.97;6.10;;;;;;;4.30;73.68;99428.78;5110359;28;41904;-75
2021/03/17 06:45:33;;;;;;;9.10;5.33;;;;;;;4.44;73.58;99432.78;5110080;28;42779;-76
2021/03/17 06:48:22;;;;;;;7.70;5.67;;;;;;;4.61;73.36;99441.00;5107706;28;42902;-75
2021/03/17 06:51:10;;;;;;;7.73;5.13;;;;;;;4.74;72.43;99446.75;5109605;28;41343;-74
2021/03/17 06:53:43;;;;;;;9.10;5.60;;;;;;;4.82;71.68;99444.78;5110630;28;41664;-77
2021/03/17 06:56:11;;;;;;;8.03;5.13;;;;;;;4.88;70.90;99457.69;5093459;28;41659;-76
2021/03/17 06:58:40;;;;;;;11.27;5.57;;;;;;;4.93;70.60;99454.06;5109290;27;42167;-73
2021/03/17 07:01:23;;;;;;;12.23;7.67;;;;;;;5.08;70.33;99465.81;5111946;27;40885;-73
2021/03/17 07:04:10;;;;;;;14.70;8.30;;;;;;;5.23;69.68;99454.00;5110926;28;41701;-74
2021/03/17 07:06:39;;;;;;;8.73;6.67;;;;;;;5.36;69.47;99456.19;5111897;27;44210;-76
2021/03/17 07:09:16;;;;;;;9.87;6.80;;;;;;;5.49;68.88;99461.03;5110419;28;42951;-75
2021/03/17 07:11:44;;;;;;;10.50;7.13;;;;;;;5.58;68.46;99453.72;5111496;27;39771;-76
2021/03/17 07:14:12;;;;;;;12.43;7.00;;;;;;;5.66;68.01;99458.75;5110302;28;41602;-74
2021/03/17 07:16:41;;;;;;;10.83;7.30;;;;;;;5.75;67.97;99468.94;5111512;27;42373;-75
2021/03/17 07:19:09;;;;;;;9.60;6.80;;;;;;;5.81;67.86;99466.09;5111631;27;42228;-76
2021/03/17 07:21:38;;;;;;;14.17;7.43;;;;;;;5.88;67.91;99462.41;5144143;27;39907;-77
2021/03/17 07:24:08;;;;;;;9.80;5.70;;;;;;;5.96;67.38;99468.25;5111675;27;41507;-74
2021/03/17 07:26:37;;;;;;;13.33;5.73;;;;;;;5.95;67.22;99461.25;5143764;27;42683;-75
2021/03/17 07:29:13;;;;;;;8.47;5.53;;;;;;;6.09;67.00;99474.81;5093460;28;41564;-76
2021/03/17 07:31:46;;;;;;;10.27;4.90;;;;;;;6.15;66.78;99483.41;5110241;28;39581;-75
2021/03/17 07:34:20;;;;;;;8.80;5.27;;;;;;;6.23;66.55;99487.47;5109950;28;42051;-76
2021/03/17 07:36:49;;;;;;;6.70;5.07;;;;;;;6.20;66.54;99465.69;5111432;27;42523;-76
2021/03/17 07:39:19;;;;;;;9.60;4.67;;;;;;;6.36;65.70;99487.91;5109862;28;42145;-74
2021/03/17 07:41:48;;;;;;;11.67;6.73;;;;;;;6.40;64.89;99481.63;5111146;27;40836;-74
2021/03/17 07:44:16;;;;;;;10.03;7.07;;;;;;;6.49;64.70;99479.53;5109806;28;41865;-74
2021/03/17 07:46:46;;;;;;;7.57;5.03;;;;;;;6.67;64.31;99478.00;5108298;28;42639;-76
2021/03/17 07:49:13;;;;;;;8.50;5.33;;;;;;;6.88;64.53;99478.97;5109418;28;42056;-75
2021/03/17 07:51:52;;;;;;;6.77;4.53;;;;;;;7.10;64.38;99481.66;5109547;28;39789;-75
2021/03/17 07:54:23;;;;;;;7.50;4.73;;;;;;;7.24;63.82;99487.25;5109396;28;41628;-75
2021/03/17 07:56:51;;;;;;;8.10;4.30;;;;;;;7.32;63.39;99493.06;5110115;28;41726;-75
2021/03/17 07:59:19;;;;;;;7.43;4.80;;;;;;;7.40;63.24;99496.28;5092048;28;42237;-75
2021/03/17 08:01:46;;;;;;;6.57;4.77;;;;;;;7.44;62.66;99497.84;5109514;28;40524;-76
2021/03/17 08:04:15;;;;;;;5.60;4.47;;;;;;;7.46;62.67;99496.03;5109719;28;40786;-76
2021/03/17 08:06:42;;;;;;;7.20;3.97;;;;;;;7.48;60.89;99504.72;5093007;28;41727;-78
2021/03/17 08:09:10;;;;;;;9.53;4.13;;;;;;;7.33;61.07;99468.44;5109225;27;41896;-77
2021/03/17 08:11:38;;;;;;;9.00;3.90;;;;;;;7.60;60.24;99489.34;5092002;28;39944;-75
2021/03/17 08:14:08;;;;;;;7.47;3.43;;;;;;;7.85;60.01;99509.38;5093045;28;41138;-76
2021/03/17 08:16:37;;;;;;;9.70;3.60;;;;;;;8.08;58.56;99504.91;5111046;27;43027;-76
2021/03/17 08:19:20;;;;;;;4.87;3.47;;;;;;;8.55;56.23;99531.94;5109154;28;41974;-77
2021/03/17 08:21:50;;;;;;;7.53;3.37;;;;;;;8.87;55.67;99520.84;5111109;27;39819;-77
2021/03/17 08:24:39;;;;;;;7.33;3.63;;;;;;;9.09;55.57;99506.66;5109842;28;41939;-77
2021/03/17 08:27:33;;;;;;;5.73;3.33;;;;;;;9.45;54.37;99531.34;5110597;27;43967;-75
2021/03/17 08:30:20;;;;;;;5.90;3.10;;;;;;;9.71;53.81;99532.75;5048480;28;41850;-75
2021/03/17 08:33:02;;;;;;;4.60;3.10;;;;;;;9.94;52.58;99534.28;5090170;28;41618;-76
2021/03/17 08:36:07;;;;;;;6.90;3.33;;;;;;;10.36;52.06;99526.03;5072316;28;41496;-75
2021/03/17 08:38:46;;;;;;;6.07;3.20;;;;;;;10.49;51.16;99537.72;5108168;28;42728;-75
2021/03/17 08:41:13;;;;;;;4.83;3.03;;;;;;;10.57;50.75;99534.66;5110621;27;42852;-77
2021/03/17 08:43:44;;;;;;;8.60;2.70;;;;;;;10.67;51.11;99526.16;5109162;28;40606;-76
2021/03/17 08:46:14;;;;;;;8.33;3.20;;;;;;;10.90;50.53;99519.66;5109499;28;41623;-76
2021/03/17 08:49:02;;;;;;;4.97;2.90;;;;;;;11.47;49.67;99531.56;5088302;28;42803;-78
2021/03/17 08:52:04;;;;;;;6.03;2.70;;;;;;;11.68;47.56;99553.38;5105290;28;42181;-77
2021/03/17 08:54:58;;;;;;;5.43;2.53;;;;;;;11.81;46.82;99554.44;5105951;28;39025;-75
2021/03/17 08:57:45;;;;;;;5.67;2.47;;;;;;;11.85;47.05;99548.00;5105958;28;41613;-75
2021/03/17 09:00:14;;;;;;;5.43;2.77;;;;;;;11.90;46.60;99553.03;5108661;28;43417;-74
2021/03/17 09:02:54;;;;;;;6.67;3.40;;;;;;;11.97;46.39;99553.56;5109028;28;42837;-76
2021/03/17 09:05:22;;;;;;;5.63;2.30;;;;;;;11.92;46.00;99566.22;5108714;28;40660;-77
2021/03/17 09:08:06;;;;;;;6.40;2.57;;;;;;;11.91;45.96;99559.22;5109488;27;42190;-76
2021/03/17 09:10:45;;;;;;;6.03;2.30;;;;;;;11.92;46.54;99548.50;5090689;28;42010;-77
2021/03/17 09:13:13;;;;;;;4.07;2.23;;;;;;;11.87;46.08;99553.22;5109868;27;42193;-76
2021/03/17 09:15:48;;;;;;;3.43;2.10;;;;;;;11.94;46.96;99545.78;5110516;27;39937;-75
2021/03/17 09:18:20;;;;;;;4.60;2.60;;;;;;;12.10;46.87;99554.56;5108956;28;41426;-77
2021/03/17 09:20:48;;;;;;;5.43;2.20;;;;;;;12.27;45.83;99551.78;5092062;27;42590;-77
2021/03/17 09:23:18;;;;;;;5.93;2.10;;;;;;;12.44;45.22;99559.63;5113061;27;42934;-77
2021/03/17 09:25:48;;;;;;;3.97;1.80;;;;;;;12.51;44.71;99554.78;5095323;28;40557;-77
2021/03/17 09:28:22;;;;;;;5.47;1.80;;;;;;;12.75;43.30;99574.59;5111989;28;42185;-76
2021/03/17 09:30:53;;;;;;;5.30;2.03;;;;;;;12.93;43.15;99548.72;5112482;28;42099;-75
2021/03/17 09:33:22;;;;;;;5.00;1.73;;;;;;;13.29;42.04;99575.72;5112362;28;42624;-76
2021/03/17 09:35:53;;;;;;;4.67;2.00;;;;;;;13.38;42.89;99568.13;5112048;28;39955;-76
2021/03/17 09:38:23;;;;;;;4.40;1.97;;;;;;;13.42;42.03;99570.50;5112247;28;41829;-78
2021/03/17 09:40:54;;;;;;;4.93;1.97;;;;;;;13.33;41.89;99559.59;5111121;28;42280;-76
2021/03/17 09:43:32;;;;;;;4.47;1.90;;;;;;;13.25;42.55;99568.03;5112230;28;41457;-77
2021/03/17 09:46:00;;;;;;;3.67;1.70;;;;;;;13.13;41.65;99574.94;5111951;28;38882;-75
2021/03/17 09:48:28;;;;;;;4.67;1.63;;;;;;;13.03;41.31;99579.09;5112047;28;41055;-74
2021/03/17 09:50:58;;;;;;;4.70;1.87;;;;;;;13.02;41.51;99580.03;5112903;27;42460;-75
2021/03/17 09:53:26;;;;;;;2.53;1.40;;;;;;;12.99;41.11;99577.56;5091758;28;42495;-78
2021/03/17 09:55:54;;;;;;;2.67;1.20;;;;;;;12.85;42.26;99585.56;5093367;28;40049;-77
2021/03/17 09:58:22;;;;;;;3.13;1.57;;;;;;;12.71;42.24;99591.69;5092734;28;41458;-74
2021/03/17 10:00:49;;;;;;;2.03;1.10;;;;;;;12.45;42.73;99593.22;5101797;28;43426;-74
2021/03/17 10:03:16;;;;;;;3.63;1.30;;;;;;;12.14;42.53;99598.56;5112578;27;42173;-76
2021/03/17 10:05:44;;;;;;;4.97;1.47;;;;;;;11.88;42.23;99597.38;5112368;28;39915;-77
2021/03/17 10:08:14;;;;;;;3.50;1.23;;;;;;;11.55;42.24;99583.31;5113281;27;41495;-78
2021/03/17 10:10:41;;;;;;;2.43;1.10;;;;;;;11.31;42.91;99590.81;5094888;28;42764;-77
2021/03/17 10:13:14;;;;;;;2.30;1.10;;;;;;;11.03;44.27;99580.81;5111646;28;43061;-81
2021/03/17 10:15:42;;;;;;;1.83;1.00;;;;;;;10.83;45.37;99576.56;5113544;27;41530;-76
2021/03/17 10:18:16;;;;;;;2.23;0.77;;;;;;;10.71;45.85;99574.56;5111503;28;42424;-77
2021/03/17 10:20:44;;;;;;;2.50;1.40;;;;;;;10.58;46.86;99560.22;5112385;28;41639;-76
2021/03/17 10:23:11;;;;;;;2.63;0.93;;;;;;;10.50;47.89;99554.47;5094547;28;41111;-77
2021/03/17 10:25:38;;;;;;;1.33;0.83;;;;;;;10.50;49.51;99543.88;5113067;27;39935;-77
2021/03/17 10:28:09;;;;;;;2.10;0.73;;;;;;;10.64;49.35;99544.00;5090850;28;40914;-77
2021/03/17 10:30:38;;;;;;;1.13;0.70;;;;;;;10.94;48.66;99539.75;5092062;28;42429;-78
2021/03/17 10:33:09;;;;;;;1.83;0.87;;;;;;;11.23;48.20;99543.50;5093430;28;41304;-77
2021/03/17 10:35:37;;;;;;;0.60;0.60;;;;;;;11.45;47.75;99524.63;5113109;27;40279;-77
2021/03/17 10:38:07;;;;;;;1.70;1.27;;;;;;;11.95;47.07;99547.47;5112107;27;41748;-79
2021/03/17 10:40:36;;;;;;;2.40;0.77;;;;;;;12.18;46.06;99547.00;5111751;28;43262;-78
2021/03/17 10:43:08;;;;;;;2.70;0.90;;;;;;;12.19;46.02;99559.34;5093702;28;41541;-77
2021/03/17 10:45:43;;;;;;;4.47;0.90;;;;;;;12.15;45.68;99550.69;5111436;28;39192;-75
2021/03/17 10:48:11;;;;;;;2.37;1.00;;;;;;;12.19;46.21;99538.97;5112772;27;42492;-76
2021/03/17 10:50:39;;;;;;;2.20;1.10;;;;;;;12.32;46.19;99546.22;5111724;28;41726;-78
2021/03/17 10:53:18;;;;;;;4.07;1.40;;;;;;;12.29;45.68;99549.91;5112118;27;42912;-79
2021/03/17 10:55:46;;;;;;;3.70;0.80;;;;;;;12.36;44.75;99553.94;5110915;28;40931;-78
2021/03/17 10:58:16;;;;;;;4.27;1.10;;;;;;;13.21;44.02;99554.09;5112392;27;41506;-77
2021/03/17 11:00:44;;;;;;;2.20;0.97;;;;;;;15.04;41.58;99563.31;5112529;27;43255;-76
2021/03/17 11:03:30;;;;;;;3.40;1.17;;;;;;;16.83;38.52;99584.03;5096655;28;42086;-80
2021/03/17 11:06:11;;;;;;;2.50;1.40;;;;;;;17.41;37.16;99591.06;5111070;28;40868;-77
2021/03/17 11:08:40;;;;;;;2.70;1.50;;;;;;;17.78;36.13;99582.81;5112235;27;42453;-77
2021/03/17 11:11:08;;;;;;;1.57;1.10;;;;;;;17.70;35.65;99590.59;5110263;28;42980;-76
2021/03/17 11:13:40;;;;;;;3.77;1.10;;;;;;;18.54;34.74;99587.25;5112196;27;42076;-80
2021/03/17 11:16:12;;;;;;;3.13;1.43;;;;;;;19.07;33.17;99600.66;5111997;27;39892;-77
2021/03/17 11:18:46;;;;;;;3.33;1.10;;;;;;;20.91;30.61;99613.69;5112461;27;42518;-76
2021/03/17 11:21:23;;;;;;;3.30;1.13;;;;;;;21.21;29.46;99626.16;5109899;28;43204;-77
2021/03/17 11:23:53;;;;;;;1.63;1.10;;;;;;;21.14;29.09;99624.00;5110668;28;42009;-76
2021/03/17 11:26:25;;;;;;;2.97;1.17;;;;;;;20.51;29.41;99624.63;5111633;27;39929;-76
2021/03/17 11:28:54;;;;;;;2.07;1.20;;;;;;;21.16;29.10;99613.94;5110038;28;41586;-74
2021/03/17 11:31:33;;;;;;;3.87;1.53;;;;;;;20.96;28.85;99612.28;5111466;27;42291;-77
2021/03/17 11:34:00;;;;;;;2.40;1.10;;;;;;;20.66;28.97;99617.81;5109770;28;42138;-77
2021/03/17 11:36:29;;;;;;;2.80;1.23;;;;;;;20.19;29.76;99611.34;5109415;28;39684;-75
2021/03/17 11:38:58;;;;;;;2.70;1.10;;;;;;;19.42;30.23;99601.13;5110393;28;42258;-78
2021/03/17 11:41:26;;;;;;;3.30;1.53;;;;;;;18.57;30.75;99584.28;5110697;27;43421;-76
2021/03/17 11:43:53;;;;;;;2.70;1.30;;;;;;;18.23;32.07;99584.41;5109960;27;41185;-76
2021/03/17 11:46:20;;;;;;;3.07;1.33;;;;;;;17.81;32.04;99583.38;5093214;28;38892;-75
2021/03/17 11:48:48;;;;;;;3.80;1.63;;;;;;;17.51;33.02;99575.13;5109955;28;40867;-74
2021/03/17 11:51:16;;;;;;;1.60;1.30;;;;;;;17.36;33.61;99570.97;5109945;28;42486;-75
2021/03/17 11:53:44;;;;;;;3.57;1.57;;;;;;;16.99;32.28;99586.38;5110773;27;42863;-76
2021/03/17 11:56:12;;;;;;;2.87;1.30;;;;;;;16.41;32.80;99580.94;5111085;27;41669;-75